Latest Weather Observations for Milingimbi

IDD60801

Issued at 7:31 pm CST Sunday 28 May 2017 (issued every 30 minutes, with the page automatically refreshed every 10 minutes)

About weather observations | Map of weather stations | Latest weather observations for NT | Other Formats
Station Details ID: 014404 Name: MILINGIMBI AIRPORT Lat: -12.09 Lon: 134.89 Height: 15.0 m
Data from the previous 72 hours. | See also: Recent months at Milingimbi
Date/Time
CST
Temp
°C
App
Temp
°C
Dew
Point
°C
Rel
Hum
%
Delta-T
°C
Wind Press
QNH
hPa
Press
MSL
hPa
Rain since
9am
mm
Dir  Spd
km/h
Gust
km/h
Spd
kts
Gust
kts
28/07:30pm 28.0 28.0 19.8 61 5.4 SE 19 26 10 14 1012.0 - 0.0
28/07:00pm 28.5 29.1 20.2 60 5.5 SE 17 22 9 12 1011.6 - 0.0
28/06:30pm 29.0 29.4 19.9 58 6.0 SE 17 26 9 14 1011.1 - 0.0
28/06:00pm 29.6 29.7 19.9 56 6.4 SE 19 24 10 13 1010.7 1010.6 0.0
28/05:30pm 30.3 31.3 20.2 54 6.7 ESE 15 24 8 13 1010.5 - 0.0
28/05:00pm 31.1 30.9 19.4 49 7.7 SE 19 28 10 15 1010.1 - 0.0
28/04:30pm 31.7 32.3 20.3 50 7.6 ESE 17 26 9 14 1010.1 - 0.0
28/04:00pm 31.4 32.6 20.0 50 7.5 ESE 13 20 7 11 1010.1 - 0.0
28/03:30pm 31.9 32.5 20.2 50 7.8 ESE 17 26 9 14 1010.1 - 0.0
28/03:00pm 31.6 32.2 20.2 50 7.6 E 17 26 9 14 1010.2 1010.1 0.0
28/02:30pm 32.2 32.9 20.5 50 7.8 ESE 17 24 9 13 1010.3 - 0.0
28/02:00pm 31.8 32.0 20.1 50 7.7 ESE 19 26 10 14 1010.6 - 0.0
28/01:30pm 32.1 33.2 20.4 50 7.8 E 15 26 8 14 1011.1 - 0.0
28/01:00pm 32.1 33.3 20.7 51 7.6 ESE 15 26 8 14 1011.5 - 0.0
28/12:30pm 31.8 32.1 20.7 51 7.4 ESE 20 28 11 15 1011.9 - 0.0
28/12:00pm 30.7 30.6 20.0 52 7.1 ESE 20 32 11 17 1012.3 1012.2 0.0
28/11:30am 31.2 30.4 20.8 54 6.9 ESE 26 35 14 19 1012.7 - 0.0
28/11:00am 30.1 29.5 20.6 56 6.3 ESE 24 37 13 20 1012.9 - 0.0
28/10:30am 29.8 29.4 20.9 59 5.9 ESE 24 35 13 19 1013.0 - 0.0
28/10:00am 29.3 28.7 20.5 59 5.8 SE 24 33 13 18 1013.1 - 0.0
28/09:30am 28.5 28.0 20.8 63 5.1 - 24 33 13 18 1013.1 - 0.0
28/09:00am 27.5 26.9 20.6 66 4.5 - 24 32 13 17 1013.1 1013.0 0.0
28/08:30am 26.4 26.9 20.9 72 3.6 - 19 28 10 15 1013.1 - 0.0
28/08:00am 25.1 26.5 21.0 78 2.7 - 15 20 8 11 1012.7 - 0.0
28/07:30am 24.0 25.7 20.9 83 2.0 - 13 15 7 8 1012.3 - 0.0
28/07:00am 23.0 24.6 20.7 87 1.5 - 13 17 7 9 1012.1 - 0.0
28/06:30am 22.8 24.7 20.5 87 1.5 - 11 15 6 8 1011.8 - 0.0
28/06:00am 22.8 24.6 20.3 86 1.6 - 11 15 6 8 1011.8 1011.7 0.0
28/05:30am 23.0 24.9 20.5 86 1.6 - 11 15 6 8 1011.6 - 0.0
28/05:00am 23.1 24.5 20.4 85 1.8 - 13 15 7 8 1011.4 - 0.0
28/04:30am 23.2 24.7 20.5 85 1.8 - 13 15 7 8 1011.4 - 0.0
28/04:00am 23.2 25.1 20.5 85 1.8 - 11 13 6 7 1011.6 - 0.0
28/03:30am 23.3 25.1 20.4 84 1.9 - 11 15 6 8 1011.9 - 0.0
28/03:00am 23.5 25.3 20.4 83 2.0 - 11 15 6 8 1012.2 1012.1 0.0
28/02:30am 23.7 25.9 20.4 82 2.1 - 9 13 5 7 1012.6 - 0.0
28/02:00am 24.0 26.0 20.7 82 2.2 - 11 15 6 8 1012.8 - 0.0
28/01:30am 24.2 25.7 20.5 80 2.4 - 13 19 7 10 1013.0 - 0.0
28/01:00am 24.4 25.9 20.5 79 2.5 - 13 17 7 9 1013.1 - 0.0
28/12:30am 24.6 25.7 20.5 78 2.7 - 15 20 8 11 1013.3 - 0.0
28/12:00am 24.7 26.0 20.2 76 2.9 - 13 19 7 10 1013.5 1013.4 0.0
 
Date/Time
CST
Temp
°C
App
Temp
°C
Dew
Point
°C
Rel
Hum
%
Delta-T
°C
Wind Press
QNH
hPa
Press
MSL
hPa
Rain since
9am
mm
Dir  Spd
km/h
Gust
km/h
Spd
kts
Gust
kts
27/11:30pm 25.1 26.3 19.9 73 3.4 - 13 19 7 10 1013.7 - 0.0
27/11:00pm 25.2 26.4 19.8 72 3.5 - 13 19 7 10 1013.6 - 0.0
27/10:30pm 25.4 27.0 20.0 72 3.5 SSE 11 15 6 8 1013.5 - 0.0
27/10:00pm 25.8 27.0 19.9 70 3.8 SE 13 19 7 10 1013.6 - 0.0
27/09:30pm 26.2 27.5 20.1 69 4.0 SSE 13 15 7 8 1013.5 - 0.0
27/09:00pm 26.4 27.6 19.8 67 4.3 SSE 13 17 7 9 1013.3 1013.2 0.0
27/08:30pm 27.3 28.1 19.9 64 4.8 SSE 15 20 8 11 1013.1 - 0.0
27/08:00pm 27.9 28.1 20.5 64 4.9 SE 20 28 11 15 1012.6 - 0.0
27/07:30pm 27.6 28.0 19.9 63 5.0 SE 17 22 9 12 1012.0 - 0.0
27/07:00pm 27.9 27.8 19.9 61 5.2 SE 20 28 11 15 1011.7 - 0.0
27/06:30pm 28.6 28.4 19.8 59 5.8 SSE 20 30 11 16 1011.5 - 0.0
27/06:00pm 29.0 29.6 20.2 59 5.8 ESE 17 30 9 16 1011.1 1011.0 0.0
27/05:30pm 30.1 30.5 20.6 56 6.3 ESE 19 26 10 14 1010.6 - 0.0
27/05:00pm 30.7 31.3 20.3 53 6.9 ESE 17 26 9 14 1010.3 - 0.0
27/04:30pm 30.7 33.2 21.8 59 6.0 E 11 19 6 10 1010.3 - 0.0
27/04:00pm 31.1 31.9 21.3 56 6.6 ESE 19 30 10 16 1010.3 - 0.0
27/03:30pm 30.3 32.2 22.7 64 5.2 ENE 17 28 9 15 1010.5 - 0.0
27/03:00pm 31.5 33.3 21.1 54 7.0 E 13 20 7 11 1010.7 1010.6 0.0
27/02:30pm 30.9 32.2 20.8 55 6.7 E 15 24 8 13 1010.9 - 0.0
27/02:00pm 30.9 32.0 20.5 54 6.9 E 15 24 8 13 1011.0 - 0.0
27/01:30pm 31.1 31.5 20.7 54 6.9 ESE 19 28 10 15 1011.3 - 0.0
27/01:00pm 31.3 31.8 20.9 54 7.0 ESE 19 26 10 14 1011.7 - 0.0
27/12:30pm 31.2 31.4 20.2 52 7.3 ESE 19 33 10 18 1012.0 - 0.0
27/12:00pm 30.9 31.8 20.8 55 6.7 ESE 17 28 9 15 1012.3 1012.2 0.0
27/11:30am 29.8 30.0 20.6 57 6.1 ESE 20 32 11 17 1012.6 - 0.0
27/11:00am 29.5 29.7 20.6 58 5.9 ESE 20 33 11 18 1013.0 - 0.0
27/10:30am 28.8 28.1 20.3 60 5.6 ESE 24 39 13 21 1013.1 - 0.0
27/10:00am 28.8 28.6 20.5 61 5.5 SE 22 30 12 16 1013.3 - 0.0
27/09:30am 27.6 27.6 19.7 62 5.1 E 19 28 10 15 1013.6 - 0.0
27/09:00am 27.4 28.0 19.5 62 5.1 - 15 22 8 12 1013.6 1013.5 0.0
27/08:30am 25.3 25.7 19.0 68 4.0 - 15 19 8 10 1013.5 - 0.0
27/08:00am 23.9 24.5 18.5 72 3.4 - 13 20 7 11 1013.3 - 0.0
27/07:30am 23.1 24.2 18.8 77 2.7 - 11 17 6 9 1013.0 - 0.0
27/07:00am 22.1 23.3 19.1 83 1.9 - 11 15 6 8 1012.7 - 0.0
27/06:30am 21.9 23.0 18.9 83 1.9 - 11 15 6 8 1012.3 - 0.0
27/06:00am 21.9 23.4 18.9 83 1.9 - 9 13 5 7 1012.0 1011.9 0.0
27/05:30am 22.1 23.6 18.9 82 2.0 - 9 13 5 7 1012.0 - 0.0
27/05:00am 22.3 23.8 18.9 81 2.1 - 9 11 5 6 1011.8 - 0.0
27/04:30am 22.9 24.1 19.1 79 2.4 - 11 13 6 7 1011.9 - 0.0
27/04:00am 23.3 24.7 19.5 79 2.4 - 11 15 6 8 1011.9 - 0.0
27/03:30am 23.3 24.4 19.7 80 2.3 - 13 17 7 9 1012.0 - 0.0
27/03:00am 22.9 24.8 19.7 82 2.1 - 9 13 5 7 1012.4 1012.3 0.0
27/02:30am 23.2 24.6 19.6 80 2.3 - 11 15 6 8 1012.7 - 0.0
27/02:00am 23.5 24.5 19.4 78 2.6 - 13 19 7 10 1012.8 - 0.0
27/01:30am 23.9 24.6 19.6 77 2.8 - 15 20 8 11 1013.0 - 0.0
27/01:00am 24.0 24.7 19.7 77 2.8 - 15 19 8 10 1013.0 - 0.0
27/12:30am 24.4 25.1 19.7 75 3.0 - 15 20 8 11 1013.2 - 0.0
27/12:00am 24.7 25.5 19.8 74 3.2 - 15 20 8 11 1013.3 1013.2 0.0
 
Date/Time
CST
Temp
°C
App
Temp
°C
Dew
Point
°C
Rel
Hum
%
Delta-T
°C
Wind Press
QNH
hPa
Press
MSL
hPa
Rain since
9am
mm
Dir  Spd
km/h
Gust
km/h
Spd
kts
Gust
kts
26/11:30pm 24.9 25.6 19.7 73 3.4 SE 15 19 8 10 1013.6 - 0.0
26/11:00pm 25.1 25.8 19.7 72 3.5 SE 15 20 8 11 1013.7 - 0.0
26/10:30pm 25.7 26.0 19.6 69 3.9 SE 17 24 9 13 1013.6 - 0.0
26/10:00pm 25.9 26.9 19.5 68 4.1 SE 13 20 7 11 1013.4 - 0.0
26/09:30pm 26.9 26.0 18.2 59 5.5 SE 20 28 11 15 1013.3 - 0.0
26/09:00pm 26.4 27.6 20.0 68 4.2 SE 13 17 7 9 1013.2 1013.1 0.0
26/08:30pm 26.9 27.9 20.3 67 4.3 SE 15 20 8 11 1013.0 - 0.0
26/08:00pm 27.3 28.4 20.4 66 4.5 SE 15 19 8 10 1012.8 - 0.0
26/07:30pm 27.7 28.7 20.3 64 4.9 SE 15 20 8 11 1012.3 - 0.0
26/07:00pm 27.8 28.0 20.1 63 5.0 SE 19 24 10 13 1012.1 - 0.0
26/06:30pm 28.1 27.6 19.9 61 5.4 ESE 22 30 12 16 1011.7 - 0.0
26/06:00pm 28.3 27.6 19.5 59 5.7 ESE 22 35 12 19 1011.4 1011.3 0.0
26/05:30pm 28.5 27.4 20.2 60 5.5 ESE 26 37 14 20 1011.1 - 0.0
26/05:00pm 28.6 27.9 19.5 58 5.9 ESE 22 37 12 20 1010.7 - 0.0
26/04:30pm 28.7 29.5 20.7 62 5.3 ESE 17 28 9 15 1010.4 - 0.0
26/04:00pm 29.5 30.4 20.9 60 5.7 ENE 17 26 9 14 1010.2 - 0.0
26/03:30pm 29.8 31.2 20.4 57 6.2 NE 13 20 7 11 1010.3 - 0.0
26/03:00pm 30.6 31.3 20.5 54 6.7 ENE 17 28 9 15 1010.4 1010.3 0.0
26/02:30pm 31.1 32.8 21.0 55 6.8 E 13 26 7 14 1010.5 - 0.0
26/02:00pm 31.0 31.9 20.9 55 6.7 E 17 24 9 13 1010.7 - 0.0
26/01:30pm 31.0 31.6 20.3 53 7.1 E 17 28 9 15 1011.0 - 0.0
26/01:00pm 30.9 31.8 20.8 55 6.7 E 17 30 9 16 1011.5 - 0.0
26/12:30pm 30.3 30.9 20.2 54 6.7 E 17 26 9 14 1012.0 - 0.0
26/12:00pm 30.3 30.8 20.8 56 6.3 ESE 19 28 10 15 1012.4 1012.3 0.0
26/11:30am 29.6 30.7 20.5 58 6.0 ESE 15 24 8 13 1013.1 - 0.0
26/11:00am 29.4 29.9 20.8 60 5.7 SE 19 28 10 15 1013.4 - 0.0
26/10:30am 29.0 30.1 20.4 59 5.7 E 15 22 8 12 1013.7 - 0.0
26/10:00am 28.9 30.0 20.4 60 5.6 ESE 15 20 8 11 1013.9 - 0.0
26/09:30am 27.6 27.9 19.7 62 5.1 ESE 17 26 9 14 1013.8 - 0.0
26/09:00am 27.3 28.0 19.6 62 5.0 ENE 15 20 8 11 1013.6 1013.5 0.0
26/08:30am 26.0 26.2 19.4 67 4.3 - 17 20 9 11 1013.4 - 0.0
26/08:00am 25.1 25.5 19.0 69 3.9 ENE 15 20 8 11 1013.3 - 0.0
26/07:30am 23.9 25.3 19.6 77 2.8 ENE 11 13 6 7 1013.0 - 0.0
26/07:00am 22.8 24.1 19.4 81 2.2 ESE 11 15 6 8 1012.7 - 0.0
26/06:30am 22.9 24.4 19.7 82 2.1 SE 11 17 6 9 1012.2 - 0.0
26/06:00am 23.1 24.3 19.9 82 2.1 ENE 13 17 7 9 1011.8 1011.7 0.0
26/05:30am 23.2 24.4 20.0 82 2.1 - 13 17 7 9 1011.5 - 0.0
26/05:00am 23.6 24.4 19.9 80 2.4 - 15 20 8 11 1011.3 - 0.0
26/04:30am 23.8 24.7 20.1 80 2.4 SE 15 19 8 10 1011.0 - 0.0
26/04:00am 24.1 25.2 20.4 80 2.4 SE 15 20 8 11 1011.1 - 0.0
26/03:30am 24.3 25.7 20.4 79 2.5 SSE 13 19 7 10 1011.3 - 0.0
26/03:00am 24.8 25.5 20.5 77 2.8 SE 17 20 9 11 1011.4 1011.3 0.0
26/02:30am 25.2 25.8 20.2 74 3.3 SE 17 22 9 12 1011.6 - 0.0
26/02:00am 25.7 26.4 20.5 73 3.4 SE 17 24 9 13 1011.9 - 0.0
26/01:30am 26.1 26.4 20.4 71 3.7 SE 19 28 10 15 1012.2 - 0.0
26/01:00am 26.7 27.0 20.8 70 3.9 SE 20 30 11 16 1012.5 - 0.0
26/12:30am 26.9 27.3 20.7 69 4.1 SE 19 28 10 15 1012.6 - 0.0
26/12:00am 27.2 27.7 20.8 68 4.2 SE 19 24 10 13 1012.8 1012.7 0.0
 
Date/Time
CST
Temp
°C
App
Temp
°C
Dew
Point
°C
Rel
Hum
%
Delta-T
°C
Wind Press
QNH
hPa
Press
MSL
hPa
Rain since
9am
mm
Dir  Spd
km/h
Gust
km/h
Spd
kts
Gust
kts
25/11:30pm 27.2 27.5 20.5 67 4.4 ESE 19 28 10 15 1013.0 - 0.0
25/11:00pm 27.4 27.3 20.7 67 4.4 SE 22 30 12 16 1013.2 - 0.0
25/10:30pm 27.5 27.8 20.8 67 4.4 ESE 20 28 11 15 1013.2 - 0.0
25/10:00pm 27.7 26.6 20.3 64 4.9 ESE 26 39 14 21 1013.1 - 0.0
25/09:30pm 27.8 27.5 20.4 64 4.9 ESE 22 35 12 19 1013.0 - 0.0
25/09:00pm 27.9 27.9 21.0 66 4.6 ESE 22 37 12 20 1012.8 1012.7 0.0
25/08:30pm 28.4 28.2 21.2 65 4.8 ESE 24 39 13 21 1012.5 - 0.0
25/08:00pm 28.9 30.7 21.9 66 4.7 ESE 15 24 8 13 1011.9 - 0.0

Other Formats:

Comma delimited format used in spreadsheet applications
http://www.bom.gov.au/fwo/IDD60801/IDD60801.94140.axf

JavaScript Object Notation format (JSON) in row-major order
http://www.bom.gov.au/fwo/IDD60801/IDD60801.94140.json